createdAt,value
2018-04-18T00:01:34.230Z,8.90
2018-04-18T00:04:00.544Z,8.90
2018-04-18T00:06:27.599Z,8.80
2018-04-18T00:08:53.899Z,8.80
2018-04-18T00:11:20.308Z,8.90
2018-04-18T00:13:46.570Z,8.80
2018-04-18T00:16:12.952Z,8.80
2018-04-18T00:18:39.218Z,8.80
2018-04-18T00:21:05.658Z,8.80
2018-04-18T00:23:31.937Z,8.70
2018-04-18T00:25:58.295Z,8.70
2018-04-18T00:28:24.623Z,8.80
2018-04-18T00:30:51.670Z,8.70
2018-04-18T00:33:17.958Z,8.70
2018-04-18T00:35:45.081Z,8.60
2018-04-18T00:38:11.376Z,8.70
2018-04-18T00:40:37.678Z,8.70
2018-04-18T00:43:03.992Z,8.60
2018-04-18T00:45:31.029Z,8.60
2018-04-18T00:47:57.345Z,8.50
2018-04-18T00:50:23.643Z,8.50
2018-04-18T00:52:49.943Z,8.40
2018-04-18T00:55:16.983Z,8.40
2018-04-18T00:57:43.994Z,8.40
2018-04-18T01:00:10.719Z,8.30
2018-04-18T01:02:37.038Z,8.30
2018-04-18T01:05:03.308Z,8.30
2018-04-18T01:07:29.600Z,8.20
2018-04-18T01:09:55.881Z,8.20
2018-04-18T01:12:22.203Z,8.20
2018-04-18T01:14:48.563Z,8.20
2018-04-18T01:17:15.959Z,8.20
2018-04-18T01:19:42.252Z,8.20
2018-04-18T01:22:08.579Z,8.20
2018-04-18T01:24:35.605Z,8.20
2018-04-18T01:27:01.935Z,8.20
2018-04-18T01:29:29.086Z,8.20
2018-04-18T01:31:55.452Z,8.20
2018-04-18T01:34:21.769Z,8.20
2018-04-18T01:36:48.801Z,8.20
2018-04-18T01:39:15.886Z,8.10
2018-04-18T01:41:42.238Z,8.10
2018-04-18T01:44:08.551Z,8.20
2018-04-18T01:46:34.823Z,8.20
2018-04-18T01:49:19.673Z,8.20
2018-04-18T01:51:46.000Z,8.20
2018-04-18T01:54:12.321Z,8.20
2018-04-18T01:56:38.645Z,8.20
2018-04-18T01:59:04.916Z,8.10
2018-04-18T02:01:31.173Z,8.10
2018-04-18T02:03:58.173Z,8.10
2018-04-18T02:06:24.475Z,8.10
2018-04-18T02:08:50.793Z,8.10
2018-04-18T02:11:17.099Z,8.00
2018-04-18T02:13:43.403Z,8.00
2018-04-18T02:16:09.738Z,8.00
2018-04-18T02:18:36.366Z,8.00
2018-04-18T02:21:02.691Z,7.90
2018-04-18T02:23:28.988Z,7.90
2018-04-18T02:25:55.322Z,7.90
2018-04-18T02:28:21.607Z,7.90
2018-04-18T02:30:47.908Z,7.90
2018-04-18T02:33:14.196Z,7.90
2018-04-18T02:35:40.534Z,8.00
2018-04-18T02:38:06.904Z,8.00
2018-04-18T02:40:33.188Z,8.00
2018-04-18T02:43:00.185Z,8.00
2018-04-18T02:45:26.448Z,8.00
2018-04-18T02:47:52.738Z,8.00
2018-04-18T02:50:19.065Z,8.00
2018-04-18T02:52:45.354Z,8.00
2018-04-18T02:55:11.639Z,8.00
2018-04-18T02:57:37.957Z,8.00
2018-04-18T03:00:04.258Z,8.00
2018-04-18T03:02:31.954Z,8.10
2018-04-18T03:04:58.253Z,8.10
2018-04-18T03:07:24.590Z,8.00
2018-04-18T03:09:50.876Z,8.10
2018-04-18T03:12:17.223Z,8.00
2018-04-18T03:14:44.323Z,8.00
2018-04-18T03:17:10.621Z,8.00
2018-04-18T03:19:37.089Z,8.00
2018-04-18T03:22:03.432Z,7.90
2018-04-18T03:24:29.759Z,7.90
2018-04-18T03:26:56.070Z,7.80
2018-04-18T03:29:22.376Z,7.80
2018-04-18T03:31:48.650Z,7.70
2018-04-18T03:34:14.945Z,7.70
2018-04-18T03:36:41.293Z,7.60
2018-04-18T03:39:07.560Z,7.50
2018-04-18T03:41:33.828Z,7.50
2018-04-18T03:44:00.904Z,7.40
2018-04-18T03:46:27.152Z,7.40
2018-04-18T03:48:53.485Z,7.40
2018-04-18T03:51:19.811Z,7.40
2018-04-18T03:53:46.168Z,7.40
2018-04-18T03:56:12.488Z,7.40
2018-04-18T03:58:38.902Z,7.30
2018-04-18T04:01:05.201Z,7.30
2018-04-18T04:03:31.485Z,7.30
2018-04-18T04:05:57.782Z,7.30
2018-04-18T04:08:24.144Z,7.20
2018-04-18T04:10:50.421Z,7.20
2018-04-18T04:13:17.541Z,7.20
2018-04-18T04:15:44.561Z,7.20
2018-04-18T04:18:29.621Z,7.20
2018-04-18T04:21:14.448Z,7.20
2018-04-18T04:24:00.175Z,7.20
2018-04-18T04:26:26.438Z,7.20
2018-04-18T04:28:52.745Z,7.20
2018-04-18T04:31:19.058Z,7.20
2018-04-18T04:33:45.340Z,7.20
2018-04-18T04:36:11.678Z,7.30
2018-04-18T04:38:38.712Z,7.30
2018-04-18T04:41:04.987Z,7.30
2018-04-18T04:43:32.335Z,7.40
2018-04-18T04:45:58.669Z,7.40
2018-04-18T04:48:24.969Z,7.50
2018-04-18T04:50:52.077Z,7.60
2018-04-18T04:53:18.393Z,7.60
2018-04-18T04:55:44.679Z,7.70
2018-04-18T04:58:10.969Z,7.80
2018-04-18T05:00:37.278Z,7.90
2018-04-18T05:03:03.541Z,8.00
2018-04-18T05:05:29.932Z,8.10
2018-04-18T05:07:56.224Z,8.20
2018-04-18T05:10:22.495Z,8.30
2018-04-18T05:12:48.856Z,8.50
2018-04-18T05:15:15.163Z,8.60
2018-04-18T05:17:41.516Z,8.70
2018-04-18T05:20:07.819Z,8.90
2018-04-18T05:22:34.230Z,9.10
2018-04-18T05:25:01.264Z,9.20
2018-04-18T05:27:27.559Z,9.20
2018-04-18T05:29:53.923Z,9.40
2018-04-18T05:32:20.323Z,9.50
2018-04-18T05:34:46.602Z,9.60
2018-04-18T05:37:13.660Z,9.70
2018-04-18T05:39:40.690Z,9.80
2018-04-18T05:42:06.981Z,9.80
2018-04-18T05:44:33.308Z,10.00
2018-04-18T05:46:59.593Z,10.10
2018-04-18T05:49:26.654Z,10.50
2018-04-18T05:51:52.971Z,10.50
2018-04-18T05:54:20.009Z,11.00
2018-04-18T05:56:46.321Z,11.00
2018-04-18T05:59:12.629Z,11.30
2018-04-18T06:01:38.984Z,11.30
2018-04-18T06:04:05.282Z,11.60
2018-04-18T06:06:31.607Z,11.90
2018-04-18T06:08:58.661Z,12.10
2018-04-18T06:11:24.955Z,12.10
2018-04-18T06:13:51.996Z,12.50
2018-04-18T06:16:19.045Z,12.50
2018-04-18T06:18:46.067Z,12.60
2018-04-18T06:21:12.400Z,12.60
2018-04-18T06:23:38.704Z,12.80
2018-04-18T06:26:04.989Z,12.80
2018-04-18T06:28:32.007Z,13.40
2018-04-18T06:30:58.257Z,13.30
2018-04-18T06:33:25.311Z,13.30
2018-04-18T06:35:52.345Z,13.30
2018-04-18T06:38:25.628Z,13.30
2018-04-18T06:40:51.950Z,13.50
2018-04-18T06:43:18.243Z,13.40
2018-04-18T06:45:44.547Z,13.50
2018-04-18T06:48:11.629Z,13.80
2018-04-18T06:50:38.034Z,13.80
2018-04-18T06:53:05.150Z,14.10
2018-04-18T06:55:31.523Z,14.10
2018-04-18T06:57:57.846Z,14.40
2018-04-18T07:00:24.169Z,14.50
2018-04-18T07:02:51.288Z,14.40
2018-04-18T07:05:17.610Z,14.40
2018-04-18T07:07:43.988Z,14.30
2018-04-18T07:10:11.030Z,14.10
2018-04-18T07:12:38.077Z,14.40
2018-04-18T07:15:05.129Z,14.40
2018-04-18T07:17:32.132Z,14.70
2018-04-18T07:19:58.407Z,14.60
2018-04-18T07:22:25.477Z,14.50
2018-04-18T07:24:51.819Z,14.50
2018-04-18T07:27:18.107Z,14.70
2018-04-18T07:29:45.201Z,15.10
2018-04-18T07:32:11.519Z,15.10
2018-04-18T07:34:37.801Z,15.40
2018-04-18T07:37:04.130Z,15.70
2018-04-18T07:39:30.513Z,15.70
2018-04-18T07:41:57.720Z,16.00
2018-04-18T07:44:24.026Z,16.20
2018-04-18T07:46:50.387Z,16.50
2018-04-18T07:49:16.725Z,16.40
2018-04-18T07:51:43.816Z,16.30
2018-04-18T07:54:10.103Z,16.30
2018-04-18T07:56:36.671Z,16.20
2018-04-18T07:59:03.001Z,16.50
2018-04-18T08:01:29.233Z,16.80
2018-04-18T08:03:55.526Z,17.20
2018-04-18T08:06:21.920Z,17.50
2018-04-18T08:08:48.237Z,17.20
2018-04-18T08:11:14.640Z,17.40
2018-04-18T08:13:41.705Z,17.50
2018-04-18T08:16:07.998Z,17.50
2018-04-18T08:18:34.382Z,17.40
2018-04-18T08:21:00.766Z,17.30
2018-04-18T08:23:27.096Z,17.60
2018-04-18T08:25:55.686Z,17.90
2018-04-18T08:28:22.756Z,18.60
2018-04-18T08:30:49.088Z,18.60
2018-04-18T08:33:15.424Z,18.70
2018-04-18T08:35:41.749Z,18.70
2018-04-18T08:38:08.837Z,19.20
2018-04-18T08:40:35.195Z,19.10
2018-04-18T08:43:01.497Z,19.20
2018-04-18T08:45:27.826Z,18.90
2018-04-18T08:47:54.116Z,18.90
2018-04-18T08:50:21.173Z,19.10
2018-04-18T08:52:47.535Z,19.10
2018-04-18T08:55:13.835Z,19.20
2018-04-18T08:57:40.168Z,19.50
2018-04-18T09:00:06.509Z,19.50
2018-04-18T09:02:32.867Z,19.70
2018-04-18T09:04:59.227Z,19.40
2018-04-18T09:07:25.596Z,19.00
2018-04-18T09:09:51.902Z,19.10
2018-04-18T09:12:18.995Z,19.80
2018-04-18T09:14:45.340Z,19.80
2018-04-18T09:17:11.664Z,20.10
2018-04-18T09:19:37.995Z,20.30
2018-04-18T09:22:04.352Z,20.20
2018-04-18T09:24:30.625Z,20.30
2018-04-18T09:26:57.692Z,20.10
2018-04-18T09:29:24.055Z,20.10
2018-04-18T09:31:50.337Z,20.20
2018-04-18T09:34:16.657Z,20.20
2018-04-18T09:36:43.737Z,20.50
2018-04-18T09:39:10.075Z,20.50
2018-04-18T09:41:36.370Z,20.50
2018-04-18T09:44:03.411Z,20.70
2018-04-18T09:46:30.512Z,20.70
2018-04-18T09:48:56.834Z,20.70
2018-04-18T09:51:23.188Z,20.70
2018-04-18T09:53:49.546Z,20.60
2018-04-18T09:56:16.590Z,20.50
2018-04-18T09:58:43.009Z,20.50
2018-04-18T10:01:09.300Z,20.50
2018-04-18T10:03:45.651Z,20.60
2018-04-18T10:06:12.051Z,20.90
2018-04-18T10:08:39.121Z,20.90
2018-04-18T10:11:06.176Z,21.20
2018-04-18T10:13:32.517Z,21.20
2018-04-18T10:15:58.875Z,21.00
2018-04-18T10:18:25.159Z,21.00
2018-04-18T10:20:52.238Z,21.30
2018-04-18T10:23:18.783Z,21.30
2018-04-18T10:25:45.165Z,21.40
2018-04-18T10:28:11.455Z,21.40
2018-04-18T10:30:38.108Z,21.40
2018-04-18T10:33:04.438Z,21.40
2018-04-18T10:35:30.792Z,21.40
2018-04-18T10:37:57.128Z,21.40
2018-04-18T10:40:24.136Z,21.40
2018-04-18T10:42:50.444Z,21.30
2018-04-18T10:45:16.815Z,21.40
2018-04-18T10:47:43.959Z,21.40
2018-04-18T10:50:10.373Z,21.40
2018-04-18T10:52:36.745Z,21.40
2018-04-18T10:55:03.076Z,21.70
2018-04-18T10:57:29.386Z,21.80
2018-04-18T10:59:55.737Z,22.00
2018-04-18T11:02:22.049Z,22.20
2018-04-18T11:04:48.353Z,22.20
2018-04-18T11:07:14.666Z,22.30
2018-04-18T11:09:40.974Z,22.40
2018-04-18T11:12:07.365Z,22.40
2018-04-18T11:14:33.727Z,22.40
2018-04-18T11:17:00.026Z,22.50
2018-04-18T11:19:26.362Z,22.60
2018-04-18T11:21:53.383Z,22.50
2018-04-18T11:24:19.776Z,22.40
2018-04-18T11:26:46.054Z,22.40
2018-04-18T11:29:12.365Z,22.60
2018-04-18T11:31:38.694Z,22.80
2018-04-18T11:34:05.052Z,23.10
2018-04-18T11:36:31.379Z,23.40
2018-04-18T11:38:57.925Z,23.70
2018-04-18T11:41:24.220Z,24.30
2018-04-18T11:43:51.309Z,26.90
2018-04-18T11:46:17.633Z,26.90
2018-04-18T11:48:43.967Z,29.00
2018-04-18T11:51:10.336Z,30.60
2018-04-18T11:53:36.637Z,31.80
2018-04-18T11:56:02.942Z,33.60
2018-04-18T11:58:29.217Z,34.60
2018-04-18T12:00:55.632Z,35.90
2018-04-18T12:03:21.934Z,36.90
2018-04-18T12:05:48.221Z,36.70
2018-04-18T12:08:14.507Z,36.40
2018-04-18T12:10:40.753Z,37.00
2018-04-18T12:13:07.069Z,36.60
2018-04-18T12:15:33.389Z,38.70
2018-04-18T12:17:59.727Z,40.10
2018-04-18T12:20:26.035Z,41.40
2018-04-18T12:22:52.373Z,42.00
2018-04-18T12:25:18.665Z,42.60
2018-04-18T12:27:44.989Z,41.20
2018-04-18T12:30:11.278Z,39.70
2018-04-18T12:32:37.569Z,41.20
2018-04-18T12:35:03.831Z,39.80
2018-04-18T12:37:32.728Z,40.70
2018-04-18T12:39:59.124Z,42.50
2018-04-18T12:42:26.141Z,42.40
2018-04-18T12:44:52.485Z,42.40
2018-04-18T12:47:18.821Z,42.40
2018-04-18T12:49:45.098Z,42.60
2018-04-18T12:52:11.391Z,37.70
2018-04-18T12:54:37.647Z,38.40
2018-04-18T12:57:04.062Z,40.40
2018-04-18T12:59:31.115Z,38.90
2018-04-18T13:01:57.365Z,38.90
2018-04-18T13:04:23.637Z,40.30
2018-04-18T13:06:49.950Z,41.10
2018-04-18T13:09:16.264Z,42.00
2018-04-18T13:11:45.107Z,39.90
2018-04-18T13:14:11.399Z,40.70
2018-04-18T13:16:37.677Z,41.30
2018-04-18T13:19:04.731Z,44.80
2018-04-18T13:21:31.809Z,44.00
2018-04-18T13:23:58.130Z,44.00
2018-04-18T13:26:24.483Z,42.30
2018-04-18T13:28:50.830Z,42.00
2018-04-18T13:31:17.226Z,41.40
2018-04-18T13:33:43.590Z,41.80
2018-04-18T13:36:09.890Z,41.30
2018-04-18T13:38:36.190Z,42.10
2018-04-18T13:41:03.257Z,44.10
2018-04-18T13:43:30.295Z,43.90
2018-04-18T13:45:57.351Z,38.80
2018-04-18T13:48:23.740Z,38.70
2018-04-18T13:50:50.019Z,38.60
2018-04-18T13:53:16.394Z,39.20
2018-04-18T13:55:42.690Z,41.30
2018-04-18T13:58:09.021Z,42.00
2018-04-18T14:00:35.343Z,43.10
2018-04-18T14:03:01.706Z,43.50
2018-04-18T14:05:28.031Z,42.90
2018-04-18T14:07:54.372Z,41.70
2018-04-18T14:10:20.682Z,42.40
2018-04-18T14:12:46.974Z,42.40
2018-04-18T14:15:14.037Z,44.60
2018-04-18T14:17:40.334Z,44.60
2018-04-18T14:20:06.658Z,45.50
2018-04-18T14:22:33.689Z,44.80
2018-04-18T14:25:00.033Z,44.80
2018-04-18T14:27:26.340Z,44.00
2018-04-18T14:29:52.673Z,43.90
2018-04-18T14:32:19.110Z,42.50
2018-04-18T14:34:45.447Z,40.90
2018-04-18T14:37:11.709Z,40.00
2018-04-18T14:39:38.039Z,40.90
2018-04-18T14:42:04.358Z,40.80
2018-04-18T14:44:30.668Z,41.40
2018-04-18T14:46:57.019Z,40.50
2018-04-18T14:49:23.382Z,40.80
2018-04-18T14:51:50.452Z,42.20
2018-04-18T14:54:16.904Z,42.20
2018-04-18T14:56:43.240Z,41.70
2018-04-18T14:59:09.564Z,41.90
2018-04-18T15:01:35.887Z,42.50
2018-04-18T15:04:02.182Z,40.70
2018-04-18T15:06:28.484Z,41.30
2018-04-18T15:08:54.763Z,42.00
2018-04-18T15:11:21.837Z,42.00
2018-04-18T15:13:48.164Z,42.00
2018-04-18T15:16:14.460Z,42.50
2018-04-18T15:18:41.713Z,40.80
2018-04-18T15:21:08.794Z,40.80
2018-04-18T15:23:35.168Z,40.70
2018-04-18T15:26:01.496Z,40.60
2018-04-18T15:28:27.907Z,40.10
2018-04-18T15:30:54.300Z,40.80
2018-04-18T15:33:21.676Z,39.30
2018-04-18T15:35:48.043Z,39.30
2018-04-18T15:38:14.388Z,38.90
2018-04-18T15:40:40.724Z,39.30
2018-04-18T15:43:07.821Z,37.70
2018-04-18T15:45:34.154Z,37.70
2018-04-18T15:48:00.493Z,38.50
2018-04-18T15:50:26.845Z,37.60
2018-04-18T15:52:53.177Z,38.00
2018-04-18T15:55:19.506Z,37.80
2018-04-18T15:57:45.850Z,37.60
2018-04-18T16:00:12.142Z,37.70
2018-04-18T16:02:38.478Z,38.00
2018-04-18T16:05:04.798Z,37.80
2018-04-18T16:07:31.902Z,37.10
2018-04-18T16:09:58.209Z,37.00
2018-04-18T16:12:25.354Z,37.70
2018-04-18T16:14:52.506Z,37.20
2018-04-18T16:17:18.850Z,37.10
2018-04-18T16:19:45.280Z,37.40
2018-04-18T16:22:11.631Z,36.50
2018-04-18T16:24:38.177Z,35.70
2018-04-18T16:27:05.277Z,35.50
2018-04-18T16:29:42.746Z,35.50
2018-04-18T16:32:09.118Z,36.00
2018-04-18T16:34:35.684Z,36.70
2018-04-18T16:37:02.025Z,36.40
2018-04-18T16:39:29.091Z,35.80
2018-04-18T16:41:56.146Z,34.70
2018-04-18T16:44:22.650Z,34.60
2018-04-18T16:46:48.984Z,34.60
2018-04-18T16:49:15.288Z,34.80
2018-04-18T16:51:41.564Z,34.40
2018-04-18T16:54:08.665Z,33.80
2018-04-18T16:56:35.018Z,33.70
2018-04-18T16:59:01.296Z,32.80
2018-04-18T17:01:27.594Z,32.20
2018-04-18T17:03:54.650Z,31.70
2018-04-18T17:06:21.766Z,31.80
2018-04-18T17:08:48.245Z,31.80
2018-04-18T17:11:14.723Z,31.90
2018-04-18T17:13:41.159Z,31.70
2018-04-18T17:16:07.830Z,31.70
2018-04-18T17:18:34.154Z,31.80
2018-04-18T17:21:00.549Z,30.60
2018-04-18T17:23:26.905Z,28.80
2018-04-18T17:25:53.238Z,27.70
2018-04-18T17:28:19.579Z,26.70
2018-04-18T17:30:46.690Z,25.30
2018-04-18T17:33:13.131Z,25.20
2018-04-18T17:35:40.270Z,24.30
2018-04-18T17:38:06.565Z,24.30
2018-04-18T17:40:33.661Z,23.70
2018-04-18T17:43:00.014Z,23.60
2018-04-18T17:45:26.549Z,23.40
2018-04-18T17:47:53.012Z,23.00
2018-04-18T17:50:20.063Z,22.50
2018-04-18T17:52:47.181Z,22.30
2018-04-18T17:55:13.518Z,22.20
2018-04-18T17:57:42.206Z,21.80
2018-04-18T18:00:08.590Z,21.80
2018-04-18T18:02:34.936Z,21.40
2018-04-18T18:05:02.074Z,21.20
2018-04-18T18:07:28.395Z,20.90
2018-04-18T18:09:54.725Z,20.70
2018-04-18T18:12:21.113Z,20.50
2018-04-18T18:14:47.389Z,20.30
2018-04-18T18:17:13.724Z,20.20
2018-04-18T18:19:39.996Z,20.00
2018-04-18T18:22:06.322Z,19.80
2018-04-18T18:24:32.623Z,19.70
2018-04-18T18:26:58.925Z,19.60
2018-04-18T18:29:25.968Z,19.30
2018-04-18T18:31:53.076Z,19.10
2018-04-18T18:34:19.362Z,19.10
2018-04-18T18:36:45.729Z,19.00
2018-04-18T18:39:12.061Z,18.80
2018-04-18T18:41:38.360Z,18.70
2018-04-18T18:44:04.660Z,18.60
2018-04-18T18:46:30.978Z,18.60
2018-04-18T18:48:57.318Z,18.40
2018-04-18T18:51:24.373Z,18.20
2018-04-18T18:53:51.506Z,18.10
2018-04-18T18:56:18.204Z,18.00
2018-04-18T18:58:44.590Z,17.80
2018-04-18T19:01:11.754Z,17.70
2018-04-18T19:03:39.152Z,17.70
2018-04-18T19:06:05.692Z,17.70
2018-04-18T19:08:32.082Z,17.60
2018-04-18T19:10:59.497Z,17.30
2018-04-18T19:13:26.685Z,17.20
2018-04-18T19:15:53.777Z,17.00
2018-04-18T19:18:20.119Z,17.00
2018-04-18T19:20:46.427Z,16.90
2018-04-18T19:23:12.724Z,16.80
2018-04-18T19:25:39.764Z,16.70
2018-04-18T19:28:06.164Z,16.70
2018-04-18T19:30:32.418Z,16.70
2018-04-18T19:32:58.716Z,16.70
2018-04-18T19:35:25.039Z,16.60
2018-04-18T19:37:51.403Z,16.50
2018-04-18T19:40:17.689Z,16.50
2018-04-18T19:42:51.303Z,16.40
2018-04-18T19:45:17.629Z,16.30
2018-04-18T19:47:43.998Z,16.20
2018-04-18T19:50:10.306Z,16.10
2018-04-18T19:52:36.598Z,16.10
2018-04-18T19:55:02.952Z,16.00
2018-04-18T19:57:29.248Z,16.00
2018-04-18T19:59:56.282Z,15.80
2018-04-18T20:02:23.391Z,15.70
2018-04-18T20:04:49.728Z,15.70
2018-04-18T20:07:16.029Z,15.60
2018-04-18T20:09:42.774Z,15.60
2018-04-18T20:12:09.123Z,15.50
2018-04-18T20:14:35.415Z,15.50
2018-04-18T20:17:02.436Z,15.40
2018-04-18T20:19:28.695Z,15.40
2018-04-18T20:21:55.726Z,15.30
2018-04-18T20:24:21.997Z,15.30
2018-04-18T20:26:48.260Z,15.20
2018-04-18T20:29:14.544Z,15.10
2018-04-18T20:31:41.568Z,15.00
2018-04-18T20:34:08.626Z,15.00
2018-04-18T20:36:40.797Z,14.90
2018-04-18T20:39:07.950Z,14.90
2018-04-18T20:41:34.989Z,14.80
2018-04-18T20:44:02.012Z,14.80
2018-04-18T20:46:28.291Z,14.80
2018-04-18T20:48:54.587Z,14.80
2018-04-18T20:51:20.868Z,14.70
2018-04-18T20:53:47.194Z,14.70
2018-04-18T20:56:13.490Z,14.60
2018-04-18T20:58:40.568Z,14.60
2018-04-18T21:01:06.875Z,14.50
2018-04-18T21:03:34.785Z,14.50
2018-04-18T21:06:01.055Z,14.50
2018-04-18T21:08:28.108Z,14.40
2018-04-18T21:10:55.150Z,14.30
2018-04-18T21:13:21.466Z,14.30
2018-04-18T21:15:47.759Z,14.30
2018-04-18T21:18:14.084Z,14.20
2018-04-18T21:20:40.367Z,14.10
2018-04-18T21:23:06.736Z,14.10
2018-04-18T21:25:33.003Z,14.00
2018-04-18T21:27:59.257Z,14.00
2018-04-18T21:30:27.039Z,13.90
2018-04-18T21:32:54.058Z,13.90
2018-04-18T21:35:20.344Z,13.80
2018-04-18T21:37:46.610Z,13.80
2018-04-18T21:40:13.320Z,13.80
2018-04-18T21:42:39.601Z,13.70
2018-04-18T21:45:05.880Z,13.70
2018-04-18T21:47:32.126Z,13.60
2018-04-18T21:49:58.537Z,13.60
2018-04-18T21:52:24.837Z,13.60
2018-04-18T21:54:51.864Z,13.50
2018-04-18T21:57:18.160Z,13.50
2018-04-18T21:59:44.469Z,13.50
2018-04-18T22:02:10.759Z,13.50
2018-04-18T22:04:37.047Z,13.50
2018-04-18T22:07:03.323Z,13.50
2018-04-18T22:09:29.645Z,13.40
2018-04-18T22:11:55.922Z,13.40
2018-04-18T22:14:22.201Z,13.40
2018-04-18T22:16:48.521Z,13.40
2018-04-18T22:19:14.777Z,13.30
2018-04-18T22:21:41.138Z,13.30
2018-04-18T22:24:08.179Z,13.30
2018-04-18T22:26:35.207Z,13.30
2018-04-18T22:29:01.467Z,13.20
2018-04-18T22:31:27.751Z,13.20
2018-04-18T22:33:54.021Z,13.20
2018-04-18T22:36:20.315Z,13.20
2018-04-18T22:38:46.582Z,13.20
2018-04-18T22:41:13.113Z,13.20
2018-04-18T22:43:40.147Z,13.20
2018-04-18T22:46:07.177Z,13.10
2018-04-18T22:48:34.967Z,13.00
2018-04-18T22:51:01.981Z,13.00
2018-04-18T22:53:28.243Z,13.00
2018-04-18T22:55:56.221Z,12.90
2018-04-18T22:58:22.515Z,12.80
2018-04-18T23:00:49.631Z,12.80
2018-04-18T23:03:15.950Z,12.80
2018-04-18T23:05:42.263Z,12.80
2018-04-18T23:08:08.576Z,12.70
2018-04-18T23:10:34.890Z,12.70
2018-04-18T23:13:01.192Z,12.60
2018-04-18T23:15:27.487Z,12.60
2018-04-18T23:17:55.361Z,12.50
2018-04-18T23:20:21.717Z,12.50
2018-04-18T23:22:47.911Z,12.40
2018-04-18T23:25:14.200Z,12.40
2018-04-18T23:27:40.486Z,12.30
2018-04-18T23:30:06.732Z,12.30
2018-04-18T23:32:33.025Z,12.30
2018-04-18T23:35:00.064Z,12.20
2018-04-18T23:37:26.365Z,12.20
2018-04-18T23:39:52.652Z,12.30
2018-04-18T23:42:19.224Z,12.40
2018-04-18T23:44:45.574Z,12.40
2018-04-18T23:47:12.851Z,12.30
2018-04-18T23:49:39.175Z,12.30
2018-04-18T23:52:06.223Z,12.20
2018-04-18T23:54:33.290Z,12.10
2018-04-18T23:57:00.323Z,12.10
2018-04-18T23:59:27.363Z,12.00
